Time;durP1;ratioP1;P1;durP2;ratioP2;P2;SDS_P1;SDS_P2;PMS_P1;PMS_P2;Temp;Humidity;BMP_temperature;BMP_pressure;BME280_temperature;BME280_humidity;BME280_pressure;Samples;Min_cycle;Max_cycle;Signal;HPM_P1;HPM_P2
2024/01/03 00:00:25;;;;;;;;;;;;;;;;;;5126277;28;19957;-54
2024/01/03 00:02:55;;;;;;;;;;;;;;;;;;5142307;28;20416;-55
2024/01/03 00:05:26;;;;;;;;;;;;;;;;;;5142442;28;19918;-55
2024/01/03 00:07:57;;;;;;;;;;;;;;;;;;5126874;28;20266;-54
2024/01/03 00:10:28;;;;;;;;;;;;;;;;;;5142540;28;20021;-57
2024/01/03 00:12:59;;;;;;;;;;;;;;;;;;5126344;28;20417;-55
2024/01/03 00:15:30;;;;;;;;;;;;;;;;;;5126718;28;19945;-56
2024/01/03 00:18:03;;;;;;;;;;;;;;;;;;5126393;28;19922;-54
2024/01/03 00:20:34;;;;;;;;;;;;;;;;;;5138828;28;19973;-55
2024/01/03 00:23:05;;;;;;;;;;;;;;;;;;5142791;28;19922;-55
2024/01/03 00:25:36;;;;;;;;;;;;;;;;;;5142271;28;19918;-54
2024/01/03 00:28:07;;;;;;;;;;;;;;;;;;5142925;28;19969;-54
2024/01/03 00:30:38;;;;;;;;;;;;;;;;;;5142358;28;19926;-55
2024/01/03 00:33:09;;;;;;;;;;;;;;;;;;5142622;28;20309;-55
2024/01/03 00:35:40;;;;;;;;;;;;;;;;;;5142259;28;20016;-55
2024/01/03 00:38:11;;;;;;;;;;;;;;;;;;5126225;28;20012;-55
2024/01/03 00:40:42;;;;;;;;;;;;;;;;;;5142105;28;19922;-56
2024/01/03 00:43:13;;;;;;;;;;;;;;;;;;5142198;28;19949;-55
2024/01/03 00:45:44;;;;;;;;;;;;;;;;;;5142039;28;19930;-55
2024/01/03 00:48:15;;;;;;;;;;;;;;;;;;5142129;28;20082;-55
2024/01/03 00:50:46;;;;;;;;;;;;;;;;;;5125761;28;19922;-55
2024/01/03 00:53:17;;;;;;;;;;;;;;;;;;5142174;28;19992;-55
2024/01/03 00:55:48;;;;;;;;;;;;;;;;;;5142412;28;19941;-55
2024/01/03 00:58:19;;;;;;;;;;;;;;;;;;5125643;28;19914;-54
2024/01/03 01:00:50;;;;;;;;;;;;;;;;;;5141965;28;19921;-55
2024/01/03 01:03:21;;;;;;;;;;;;;;;;;;5142892;28;20020;-55
2024/01/03 01:05:52;;;;;;;;;;;;;;;;;;5141804;28;20489;-55
2024/01/03 01:08:23;;;;;;;;;;;;;;;;;;5141562;28;19943;-55
2024/01/03 01:10:54;;;;;;;;;;;;;;;;;;5141474;28;19921;-56
2024/01/03 01:13:25;;;;;;;;;;;;;;;;;;5125327;28;20424;-56
2024/01/03 01:15:56;;;;;;;;;;;;;;;;;;5141457;28;19945;-54
2024/01/03 01:18:27;;;;;;;;;;;;;;;;;;5142731;28;19949;-57
2024/01/03 01:20:58;;;;;;;;;;;;;;;;;;5141280;28;19922;-55
2024/01/03 01:23:30;;;;;;;;;;;;;;;;;;5141709;28;20312;-55
2024/01/03 01:26:01;;;;;;;;;;;;;;;;;;5141591;28;19922;-55
2024/01/03 01:28:32;;;;;;;;;;;;;;;;;;5125609;28;19941;-55
2024/01/03 01:31:03;;;;;;;;;;;;;;;;;;5141432;28;19918;-55
2024/01/03 01:33:34;;;;;;;;;;;;;;;;;;5124871;28;19918;-54
2024/01/03 01:36:05;;;;;;;;;;;;;;;;;;5141745;28;19944;-56
2024/01/03 01:38:36;;;;;;;;;;;;;;;;;;5141026;28;19929;-56
2024/01/03 01:41:07;;;;;;;;;;;;;;;;;;5141501;28;20385;-55
2024/01/03 01:43:38;;;;;;;;;;;;;;;;;;5141511;28;19997;-55
2024/01/03 01:46:09;;;;;;;;;;;;;;;;;;5125264;28;19922;-55
2024/01/03 01:48:40;;;;;;;;;;;;;;;;;;5141636;28;19964;-56
2024/01/03 01:51:11;;;;;;;;;;;;;;;;;;5140924;28;19918;-56
2024/01/03 01:53:42;;;;;;;;;;;;;;;;;;5125146;28;20060;-56
2024/01/03 01:56:13;;;;;;;;;;;;;;;;;;5124939;28;19925;-57
2024/01/03 01:58:44;;;;;;;;;;;;;;;;;;5140994;28;19925;-56
2024/01/03 02:01:17;;;;;;;;;;;;;;;;;;5148560;28;20265;-56
2024/01/03 02:03:48;;;;;;;;;;;;;;;;;;5135149;28;19918;-56
2024/01/03 02:06:19;;;;;;;;;;;;;;;;;;5141429;28;19933;-56
2024/01/03 02:08:50;;;;;;;;;;;;;;;;;;5140621;28;19918;-56
2024/01/03 02:11:21;;;;;;;;;;;;;;;;;;5130675;28;19933;-57
2024/01/03 02:13:52;;;;;;;;;;;;;;;;;;5145431;28;19914;-57
2024/01/03 02:16:23;;;;;;;;;;;;;;;;;;5128862;28;19925;-56
2024/01/03 02:18:54;;;;;;;;;;;;;;;;;;5125249;28;20443;-56
2024/01/03 02:21:25;;;;;;;;;;;;;;;;;;5144715;28;20005;-58
2024/01/03 02:23:56;;;;;;;;;;;;;;;;;;5145602;28;20000;-57
2024/01/03 02:26:27;;;;;;;;;;;;;;;;;;5145617;28;20036;-57
2024/01/03 02:28:58;;;;;;;;;;;;;;;;;;5144728;28;19924;-57
2024/01/03 02:31:29;;;;;;;;;;;;;;;;;;5142840;28;19918;-57
2024/01/03 02:34:00;;;;;;;;;;;;;;;;;;5127971;28;20373;-57
2024/01/03 02:36:31;;;;;;;;;;;;;;;;;;5128823;28;19918;-56
2024/01/03 02:39:02;;;;;;;;;;;;;;;;;;5143478;28;20004;-57
2024/01/03 02:41:33;;;;;;;;;;;;;;;;;;5119140;28;19914;-57
2024/01/03 02:44:04;;;;;;;;;;;;;;;;;;5130338;28;19945;-57
2024/01/03 02:46:35;;;;;;;;;;;;;;;;;;5141445;28;19949;-56
2024/01/03 02:49:06;;;;;;;;;;;;;;;;;;5147484;28;20357;-56
2024/01/03 02:51:37;;;;;;;;;;;;;;;;;;5153288;28;19932;-57
2024/01/03 02:54:08;;;;;;;;;;;;;;;;;;5128549;28;19918;-57
2024/01/03 02:56:39;;;;;;;;;;;;;;;;;;5143928;28;19933;-57
2024/01/03 02:59:10;;;;;;;;;;;;;;;;;;5128533;28;19918;-57
2024/01/03 03:01:42;;;;;;;;;;;;;;;;;;5144327;28;19918;-57
2024/01/03 03:04:13;;;;;;;;;;;;;;;;;;5150715;28;19961;-58
2024/01/03 03:06:44;;;;;;;;;;;;;;;;;;5144060;28;19989;-58
2024/01/03 03:09:15;;;;;;;;;;;;;;;;;;5151660;28;19922;-57
2024/01/03 03:11:46;;;;;;;;;;;;;;;;;;5150067;28;19918;-57
2024/01/03 03:14:17;;;;;;;;;;;;;;;;;;5127859;28;19922;-57
2024/01/03 03:16:48;;;;;;;;;;;;;;;;;;5142591;28;19926;-57
2024/01/03 03:19:19;;;;;;;;;;;;;;;;;;5127678;28;19922;-57
2024/01/03 03:21:50;;;;;;;;;;;;;;;;;;5143367;28;20290;-57
2024/01/03 03:24:21;;;;;;;;;;;;;;;;;;5150921;28;19968;-57
2024/01/03 03:26:53;;;;;;;;;;;;;;;;;;5143385;28;20320;-57
2024/01/03 03:29:24;;;;;;;;;;;;;;;;;;5143553;28;19929;-57
2024/01/03 03:31:55;;;;;;;;;;;;;;;;;;5139475;28;20393;-57
2024/01/03 03:34:26;;;;;;;;;;;;;;;;;;5143347;28;19969;-57
2024/01/03 03:36:57;;;;;;;;;;;;;;;;;;5143775;28;20024;-57
2024/01/03 03:39:28;;;;;;;;;;;;;;;;;;5142938;28;20020;-57
2024/01/03 03:41:59;;;;;;;;;;;;;;;;;;5127384;28;20013;-57
2024/01/03 03:44:30;;;;;;;;;;;;;;;;;;5143304;28;19958;-57
2024/01/03 03:47:01;;;;;;;;;;;;;;;;;;5143415;28;19922;-57
2024/01/03 03:49:32;;;;;;;;;;;;;;;;;;5143128;28;19918;-57
2024/01/03 03:52:03;;;;;;;;;;;;;;;;;;5127061;28;19925;-57
2024/01/03 03:54:34;;;;;;;;;;;;;;;;;;5139084;28;20020;-57
2024/01/03 03:57:05;;;;;;;;;;;;;;;;;;5136353;28;19992;-57
2024/01/03 03:59:36;;;;;;;;;;;;;;;;;;5142663;28;19924;-59
2024/01/03 04:02:07;;;;;;;;;;;;;;;;;;5143015;28;19922;-58
2024/01/03 04:04:38;;;;;;;;;;;;;;;;;;5143216;28;20206;-57
2024/01/03 04:07:09;;;;;;;;;;;;;;;;;;5142687;28;19949;-58
2024/01/03 04:09:40;;;;;;;;;;;;;;;;;;5142835;28;19918;-57
2024/01/03 04:12:11;;;;;;;;;;;;;;;;;;5142723;28;19961;-57
2024/01/03 04:14:42;;;;;;;;;;;;;;;;;;5142878;28;19996;-57
2024/01/03 04:17:14;;;;;;;;;;;;;;;;;;5126558;28;19925;-57
2024/01/03 04:19:45;;;;;;;;;;;;;;;;;;5126534;28;19914;-57
2024/01/03 04:22:16;;;;;;;;;;;;;;;;;;5142320;28;19918;-57
2024/01/03 04:24:47;;;;;;;;;;;;;;;;;;5142400;28;20349;-57
2024/01/03 04:27:18;;;;;;;;;;;;;;;;;;5142392;28;19926;-57
2024/01/03 04:29:49;;;;;;;;;;;;;;;;;;5139637;28;19926;-57
2024/01/03 04:32:20;;;;;;;;;;;;;;;;;;5140571;28;19918;-57
2024/01/03 04:34:51;;;;;;;;;;;;;;;;;;5126254;28;19992;-57
2024/01/03 04:37:22;;;;;;;;;;;;;;;;;;5142359;28;19918;-57
2024/01/03 04:39:53;;;;;;;;;;;;;;;;;;5141821;28;20472;-57
2024/01/03 04:42:24;;;;;;;;;;;;;;;;;;5142221;28;19924;-57
2024/01/03 04:44:55;;;;;;;;;;;;;;;;;;5141950;28;20304;-56
2024/01/03 04:47:26;;;;;;;;;;;;;;;;;;5142219;28;20053;-56
2024/01/03 04:49:57;;;;;;;;;;;;;;;;;;5142404;28;20468;-57
2024/01/03 04:52:28;;;;;;;;;;;;;;;;;;5141771;28;20012;-57
2024/01/03 04:54:59;;;;;;;;;;;;;;;;;;5142316;28;19929;-57
2024/01/03 04:57:30;;;;;;;;;;;;;;;;;;5141668;28;19934;-57
2024/01/03 05:00:01;;;;;;;;;;;;;;;;;;5126226;28;19983;-57
2024/01/03 05:02:32;;;;;;;;;;;;;;;;;;5141853;28;19918;-57
2024/01/03 05:05:03;;;;;;;;;;;;;;;;;;5142212;28;19922;-57
2024/01/03 05:07:34;;;;;;;;;;;;;;;;;;5125047;28;20065;-58
2024/01/03 05:10:08;;;;;;;;;;;;;;;;;;5141676;28;19921;-57
2024/01/03 05:12:39;;;;;;;;;;;;;;;;;;5139594;28;19921;-57
2024/01/03 05:15:10;;;;;;;;;;;;;;;;;;5141692;28;19925;-57
2024/01/03 05:17:42;;;;;;;;;;;;;;;;;;5142104;28;19918;-57
2024/01/03 05:20:13;;;;;;;;;;;;;;;;;;5142101;28;19933;-57
2024/01/03 05:22:44;;;;;;;;;;;;;;;;;;5125004;28;19922;-58
2024/01/03 05:25:15;;;;;;;;;;;;;;;;;;5138217;28;19925;-59
2024/01/03 05:27:46;;;;;;;;;;;;;;;;;;5121157;28;19930;-58
2024/01/03 05:30:17;;;;;;;;;;;;;;;;;;5125203;28;19931;-58
2024/01/03 05:32:48;;;;;;;;;;;;;;;;;;5122213;28;19941;-58
2024/01/03 05:35:19;;;;;;;;;;;;;;;;;;5141172;28;19949;-59
2024/01/03 05:37:50;;;;;;;;;;;;;;;;;;5126036;28;20385;-58
2024/01/03 05:40:21;;;;;;;;;;;;;;;;;;5141314;28;19934;-59
2024/01/03 05:42:52;;;;;;;;;;;;;;;;;;5140248;28;20913;-58
2024/01/03 05:45:23;;;;;;;;;;;;;;;;;;5141482;28;20411;-56
2024/01/03 05:47:54;;;;;;;;;;;;;;;;;;5128037;28;19932;-57
2024/01/03 05:50:26;;;;;;;;;;;;;;;;;;5128959;28;20337;-57
2024/01/03 05:52:57;;;;;;;;;;;;;;;;;;5127407;28;20377;-57
2024/01/03 05:55:28;;;;;;;;;;;;;;;;;;5146045;28;20301;-56
2024/01/03 05:57:59;;;;;;;;;;;;;;;;;;5129357;28;19988;-57
2024/01/03 06:00:30;;;;;;;;;;;;;;;;;;5145768;28;19922;-56
2024/01/03 06:03:02;;;;;;;;;;;;;;;;;;5146042;28;19918;-57
2024/01/03 06:05:33;;;;;;;;;;;;;;;;;;5145453;28;19996;-57
2024/01/03 06:08:04;;;;;;;;;;;;;;;;;;5128829;28;19922;-57
2024/01/03 06:10:35;;;;;;;;;;;;;;;;;;5128941;28;19941;-56
2024/01/03 06:13:06;;;;;;;;;;;;;;;;;;5145271;28;19918;-56
2024/01/03 06:15:37;;;;;;;;;;;;;;;;;;5130742;28;19918;-58
2024/01/03 06:18:08;;;;;;;;;;;;;;;;;;5148394;28;19953;-59
2024/01/03 06:20:40;;;;;;;;;;;;;;;;;;5148113;28;19921;-56
2024/01/03 06:23:11;;;;;;;;;;;;;;;;;;5151350;28;20376;-57
2024/01/03 06:25:42;;;;;;;;;;;;;;;;;;5144884;28;19918;-58
2024/01/03 06:28:13;;;;;;;;;;;;;;;;;;5145057;28;19918;-59
2024/01/03 06:30:44;;;;;;;;;;;;;;;;;;5144748;28;19922;-60
2024/01/03 06:33:15;;;;;;;;;;;;;;;;;;5145006;28;19922;-59
2024/01/03 06:35:46;;;;;;;;;;;;;;;;;;5128778;28;19918;-57
2024/01/03 06:38:17;;;;;;;;;;;;;;;;;;5144905;28;19918;-57
2024/01/03 06:40:48;;;;;;;;;;;;;;;;;;5124758;28;20032;-57
2024/01/03 06:43:19;;;;;;;;;;;;;;;;;;5144769;28;20384;-57
2024/01/03 06:45:50;;;;;;;;;;;;;;;;;;5128394;28;19918;-57
2024/01/03 06:48:21;;;;;;;;;;;;;;;;;;5128627;28;19932;-57
2024/01/03 06:50:52;;;;;;;;;;;;;;;;;;5144188;28;19922;-57
2024/01/03 06:53:23;;;;;;;;;;;;;;;;;;5144496;28;19931;-57
2024/01/03 06:55:54;;;;;;;;;;;;;;;;;;5144435;28;19994;-57
2024/01/03 06:58:25;;;;;;;;;;;;;;;;;;5127811;28;20462;-57
2024/01/03 07:00:56;;;;;;;;;;;;;;;;;;5144333;28;19961;-57
2024/01/03 07:03:27;;;;;;;;;;;;;;;;;;5144659;28;20393;-57
2024/01/03 07:05:58;;;;;;;;;;;;;;;;;;5144084;28;20039;-57
2024/01/03 07:08:29;;;;;;;;;;;;;;;;;;5144179;28;19964;-57
2024/01/03 07:11:00;;;;;;;;;;;;;;;;;;5147741;28;19953;-57
2024/01/03 07:13:32;;;;;;;;;;;;;;;;;;5144120;28;19922;-56
2024/01/03 07:16:03;;;;;;;;;;;;;;;;;;5128130;28;19924;-56
2024/01/03 07:18:34;;;;;;;;;;;;;;;;;;5143935;28;19937;-56
2024/01/03 07:21:05;;;;;;;;;;;;;;;;;;5127596;28;19918;-55
2024/01/03 07:23:36;;;;;;;;;;;;;;;;;;5141465;28;19930;-55
2024/01/03 07:26:07;;;;;;;;;;;;;;;;;;5143481;28;19942;-56
2024/01/03 07:28:38;;;;;;;;;;;;;;;;;;5141072;28;19922;-55
2024/01/03 07:31:09;;;;;;;;;;;;;;;;;;5144116;28;20004;-55
2024/01/03 07:33:41;;;;;;;;;;;;;;;;;;5143287;28;19964;-59
2024/01/03 07:36:11;;;;;;;;;;;;;;;;;;5143524;28;19918;-57
2024/01/03 07:38:44;;;;;;;;;;;;;;;;;;5143376;28;19921;-58
2024/01/03 07:41:15;;;;;;;;;;;;;;;;;;5143586;28;19926;-58
2024/01/03 07:43:46;;;;;;;;;;;;;;;;;;5127205;28;19922;-58
2024/01/03 07:46:17;;;;;;;;;;;;;;;;;;5143270;28;20407;-57
2024/01/03 07:48:48;;;;;;;;;;;;;;;;;;5142710;28;19964;-58
2024/01/03 07:51:19;;;;;;;;;;;;;;;;;;5142851;28;19922;-59
2024/01/03 07:53:50;;;;;;;;;;;;;;;;;;5143605;28;19914;-58
2024/01/03 07:56:21;;;;;;;;;;;;;;;;;;5127326;28;19922;-58
2024/01/03 07:58:53;;;;;;;;;;;;;;;;;;5142928;28;19922;-58
2024/01/03 08:01:24;;;;;;;;;;;;;;;;;;5143556;28;19917;-57
2024/01/03 08:03:55;;;;;;;;;;;;;;;;;;5143494;28;19914;-57
2024/01/03 08:06:26;;;;;;;;;;;;;;;;;;5142564;28;19933;-59
2024/01/03 08:08:57;;;;;;;;;;;;;;;;;;5142638;28;20386;-58
2024/01/03 08:11:28;;;;;;;;;;;;;;;;;;5142339;28;20012;-58
2024/01/03 08:13:59;;;;;;;;;;;;;;;;;;5153404;28;20443;-58
2024/01/03 08:16:30;;;;;;;;;;;;;;;;;;5143049;28;19922;-58
2024/01/03 08:19:01;;;;;;;;;;;;;;;;;;5121314;28;19957;-58
2024/01/03 08:21:33;;;;;;;;;;;;;;;;;;5126244;28;19925;-58
2024/01/03 08:24:04;;;;;;;;;;;;;;;;;;5123591;28;20067;-58
2024/01/03 08:26:54;;;;;;;;;;;;;;;;;;5136599;28;19996;-58
2024/01/03 08:29:25;;;;;;;;;;;;;;;;;;5126146;28;19925;-57
2024/01/03 08:31:56;;;;;;;;;;;;;;;;;;5122854;29;19922;-58
2024/01/03 08:34:27;;;;;;;;;;;;;;;;;;5142677;28;20008;-58
2024/01/03 08:36:58;;;;;;;;;;;;;;;;;;5142492;28;19936;-58
2024/01/03 08:39:29;;;;;;;;;;;;;;;;;;5141831;28;19918;-58
2024/01/03 08:42:00;;;;;;;;;;;;;;;;;;5142529;28;20429;-58
2024/01/03 08:44:31;;;;;;;;;;;;;;;;;;5126062;28;19981;-58
2024/01/03 08:47:02;;;;;;;;;;;;;;;;;;5141617;28;19933;-58
2024/01/03 08:49:33;;;;;;;;;;;;;;;;;;5141574;28;19918;-58
2024/01/03 08:52:04;;;;;;;;;;;;;;;;;;5141562;28;19950;-58
2024/01/03 08:54:35;;;;;;;;;;;;;;;;;;5141537;28;20385;-58
2024/01/03 08:57:08;;;;;;;;;;;;;;;;;;5141520;28;19918;-57
2024/01/03 08:59:39;;;;;;;;;;;;;;;;;;5141429;28;19918;-58
2024/01/03 09:02:11;;;;;;;;;;;;;;;;;;5141423;28;20377;-58
2024/01/03 09:04:42;;;;;;;;;;;;;;;;;;5141824;28;20309;-58
2024/01/03 09:07:13;;;;;;;;;;;;;;;;;;5141288;28;20021;-58
2024/01/03 09:09:44;;;;;;;;;;;;;;;;;;5141257;28;20004;-58
2024/01/03 09:12:16;;;;;;;;;;;;;;;;;;5124950;28;20012;-58
2024/01/03 09:14:47;;;;;;;;;;;;;;;;;;5141849;28;19921;-57
2024/01/03 09:17:18;;;;;;;;;;;;;;;;;;5141556;28;19925;-58
2024/01/03 09:19:49;;;;;;;;;;;;;;;;;;5141618;28;19922;-58
2024/01/03 09:22:20;;;;;;;;;;;;;;;;;;5141875;28;19994;-58
2024/01/03 09:24:51;;;;;;;;;;;;;;;;;;5125426;28;19918;-58
2024/01/03 09:27:22;;;;;;;;;;;;;;;;;;5141814;28;20029;-58
2024/01/03 09:29:53;;;;;;;;;;;;;;;;;;5125793;28;20268;-57
2024/01/03 09:32:24;;;;;;;;;;;;;;;;;;5141442;28;19930;-58
2024/01/03 09:34:55;;;;;;;;;;;;;;;;;;5141478;28;20455;-58
2024/01/03 09:37:26;;;;;;;;;;;;;;;;;;5141909;28;19918;-58
2024/01/03 09:39:57;;;;;;;;;;;;;;;;;;5124955;28;20017;-58
2024/01/03 09:42:28;;;;;;;;;;;;;;;;;;5141526;28;19964;-58
2024/01/03 09:44:59;;;;;;;;;;;;;;;;;;5141603;28;19972;-58
2024/01/03 09:47:30;;;;;;;;;;;;;;;;;;5141274;28;19930;-58
2024/01/03 09:50:01;;;;;;;;;;;;;;;;;;5146484;28;20381;-58
2024/01/03 09:52:32;;;;;;;;;;;;;;;;;;5141723;28;19922;-58
2024/01/03 09:55:03;;;;;;;;;;;;;;;;;;5125151;28;20016;-59
2024/01/03 09:57:34;;;;;;;;;;;;;;;;;;5141192;28;20291;-59
2024/01/03 10:00:05;;;;;;;;;;;;;;;;;;5125349;28;19922;-58
2024/01/03 10:02:36;;;;;;;;;;;;;;;;;;5141938;28;19922;-59
2024/01/03 10:05:07;;;;;;;;;;;;;;;;;;5123240;28;19966;-59
2024/01/03 10:07:40;;;;;;;;;;;;;;;;;;5141388;28;19922;-59
2024/01/03 10:10:11;;;;;;;;;;;;;;;;;;5136425;28;19925;-60
2024/01/03 10:12:42;;;;;;;;;;;;;;;;;;5143662;28;19971;-59
2024/01/03 10:15:15;;;;;;;;;;;;;;;;;;5125041;28;19918;-59
2024/01/03 10:17:46;;;;;;;;;;;;;;;;;;5125325;28;19918;-59
2024/01/03 10:20:17;;;;;;;;;;;;;;;;;;5140878;28;19922;-59
2024/01/03 10:22:48;;;;;;;;;;;;;;;;;;5121479;28;19937;-59
2024/01/03 10:25:19;;;;;;;;;;;;;;;;;;5140927;28;19917;-60
2024/01/03 10:27:50;;;;;;;;;;;;;;;;;;5141102;28;20393;-60
2024/01/03 10:30:21;;;;;;;;;;;;;;;;;;5140838;28;20004;-60
2024/01/03 10:32:52;;;;;;;;;;;;;;;;;;5124572;28;19973;-60
2024/01/03 10:35:23;;;;;;;;;;;;;;;;;;5144272;28;19918;-60
2024/01/03 10:37:54;;;;;;;;;;;;;;;;;;5128484;28;20402;-60
2024/01/03 10:40:25;;;;;;;;;;;;;;;;;;5145510;28;19918;-60
2024/01/03 10:42:56;;;;;;;;;;;;;;;;;;5143169;28;19934;-60
2024/01/03 10:45:27;;;;;;;;;;;;;;;;;;5128188;28;20016;-60
2024/01/03 10:47:58;;;;;;;;;;;;;;;;;;5127872;28;20325;-59
2024/01/03 10:50:29;;;;;;;;;;;;;;;;;;5143738;28;19933;-59
2024/01/03 10:53:00;;;;;;;;;;;;;;;;;;5143739;28;20008;-59
2024/01/03 10:55:31;;;;;;;;;;;;;;;;;;5124972;28;19937;-58
2024/01/03 10:58:03;;;;;;;;;;;;;;;;;;5139814;28;19918;-59
2024/01/03 11:00:34;;;;;;;;;;;;;;;;;;5126391;28;20056;-59
2024/01/03 11:03:05;;;;;;;;;;;;;;;;;;5144366;28;19965;-60
2024/01/03 11:05:36;;;;;;;;;;;;;;;;;;5127973;28;19948;-59
2024/01/03 11:08:07;;;;;;;;;;;;;;;;;;5144207;28;20361;-60
2024/01/03 11:10:38;;;;;;;;;;;;;;;;;;5127796;28;20013;-60
2024/01/03 11:13:09;;;;;;;;;;;;;;;;;;5124592;28;20026;-60
2024/01/03 11:15:40;;;;;;;;;;;;;;;;;;5143674;28;19925;-59
2024/01/03 11:18:11;;;;;;;;;;;;;;;;;;5143857;28;20361;-59
2024/01/03 11:20:42;;;;;;;;;;;;;;;;;;5144251;28;20322;-60
2024/01/03 11:23:13;;;;;;;;;;;;;;;;;;5126196;28;19922;-60
2024/01/03 11:25:44;;;;;;;;;;;;;;;;;;5127933;28;20404;-59
2024/01/03 11:28:15;;;;;;;;;;;;;;;;;;5127283;28;19922;-60
2024/01/03 11:30:46;;;;;;;;;;;;;;;;;;5143523;28;20428;-59
2024/01/03 11:33:17;;;;;;;;;;;;;;;;;;5143590;28;19961;-59
2024/01/03 11:35:49;;;;;;;;;;;;;;;;;;5155310;28;19981;-59
2024/01/03 11:38:20;;;;;;;;;;;;;;;;;;5143180;28;19922;-59
2024/01/03 11:40:51;;;;;;;;;;;;;;;;;;5143465;28;20297;-61
2024/01/03 11:43:22;;;;;;;;;;;;;;;;;;5143352;28;19922;-61
2024/01/03 11:45:52;;;;;;;;;;;;;;;;;;5142404;28;20348;-60
2024/01/03 11:48:23;;;;;;;;;;;;;;;;;;5143375;28;19922;-60
2024/01/03 11:50:54;;;;;;;;;;;;;;;;;;5141416;28;20298;-60
2024/01/03 11:53:26;;;;;;;;;;;;;;;;;;5143808;28;20009;-61
2024/01/03 11:55:57;;;;;;;;;;;;;;;;;;5127343;28;19922;-61
2024/01/03 11:58:28;;;;;;;;;;;;;;;;;;5143693;28;20008;-61
2024/01/03 12:00:59;;;;;;;;;;;;;;;;;;5143035;28;19977;-61
2024/01/03 12:03:30;;;;;;;;;;;;;;;;;;5143260;28;20032;-61
2024/01/03 12:06:01;;;;;;;;;;;;;;;;;;5142867;28;19957;-60
2024/01/03 12:08:34;;;;;;;;;;;;;;;;;;5142986;28;20392;-60
2024/01/03 12:11:05;;;;;;;;;;;;;;;;;;5143184;28;19968;-60
2024/01/03 12:13:36;;;;;;;;;;;;;;;;;;5143187;28;19925;-60
2024/01/03 12:16:08;;;;;;;;;;;;;;;;;;5142780;28;19918;-60
2024/01/03 12:18:39;;;;;;;;;;;;;;;;;;5143764;28;19918;-60
2024/01/03 12:21:10;;;;;;;;;;;;;;;;;;5143184;28;19965;-61
2024/01/03 12:23:41;;;;;;;;;;;;;;;;;;5142442;28;19957;-60
2024/01/03 12:26:12;;;;;;;;;;;;;;;;;;5126755;28;19932;-60
2024/01/03 12:28:43;;;;;;;;;;;;;;;;;;5142530;28;19922;-60
2024/01/03 12:31:13;;;;;;;;;;;;;;;;;;5142657;28;19917;-60
2024/01/03 12:33:44;;;;;;;;;;;;;;;;;;5142659;28;19918;-60
2024/01/03 12:36:15;;;;;;;;;;;;;;;;;;5126246;28;20255;-61
2024/01/03 12:38:46;;;;;;;;;;;;;;;;;;5142949;28;20062;-60
2024/01/03 12:41:17;;;;;;;;;;;;;;;;;;5142035;28;19934;-60
2024/01/03 12:43:48;;;;;;;;;;;;;;;;;;5142851;28;19918;-61
2024/01/03 12:46:19;;;;;;;;;;;;;;;;;;5141964;28;19922;-60
2024/01/03 12:48:50;;;;;;;;;;;;;;;;;;5142103;28;19917;-61
2024/01/03 12:51:21;;;;;;;;;;;;;;;;;;5142177;28;20298;-60
2024/01/03 12:53:52;;;;;;;;;;;;;;;;;;5142366;28;19965;-61
2024/01/03 12:56:23;;;;;;;;;;;;;;;;;;5142327;28;19926;-61
2024/01/03 12:58:54;;;;;;;;;;;;;;;;;;5139036;28;19918;-62
2024/01/03 13:01:25;;;;;;;;;;;;;;;;;;5142036;28;20396;-61
2024/01/03 13:03:57;;;;;;;;;;;;;;;;;;5141837;28;19952;-59
2024/01/03 13:06:28;;;;;;;;;;;;;;;;;;5125824;28;20020;-60
2024/01/03 13:08:59;;;;;;;;;;;;;;;;;;5125981;28;19932;-58
2024/01/03 13:11:30;;;;;;;;;;;;;;;;;;5133619;28;19921;-59
2024/01/03 13:14:01;;;;;;;;;;;;;;;;;;5141761;28;19918;-59
2024/01/03 13:16:32;;;;;;;;;;;;;;;;;;5142082;28;20189;-61
2024/01/03 13:19:03;;;;;;;;;;;;;;;;;;5125897;28;20048;-58
2024/01/03 13:21:34;;;;;;;;;;;;;;;;;;5141774;28;19925;-60
2024/01/03 13:24:05;;;;;;;;;;;;;;;;;;5125908;28;19918;-59
2024/01/03 13:26:36;;;;;;;;;;;;;;;;;;5141524;28;19953;-60
2024/01/03 13:29:07;;;;;;;;;;;;;;;;;;5141788;28;19929;-60
2024/01/03 13:31:38;;;;;;;;;;;;;;;;;;5141528;28;20016;-68
2024/01/03 13:34:09;;;;;;;;;;;;;;;;;;5142114;28;19961;-61
2024/01/03 13:36:40;;;;;;;;;;;;;;;;;;5141538;28;19914;-61
2024/01/03 13:39:11;;;;;;;;;;;;;;;;;;5141461;28;19944;-60
2024/01/03 13:41:42;;;;;;;;;;;;;;;;;;5141676;28;19996;-60
2024/01/03 13:44:13;;;;;;;;;;;;;;;;;;5125212;28;19925;-60
2024/01/03 13:46:44;;;;;;;;;;;;;;;;;;5121951;28;20089;-59
2024/01/03 13:49:15;;;;;;;;;;;;;;;;;;5136503;28;19918;-60
2024/01/03 13:51:46;;;;;;;;;;;;;;;;;;5125915;28;20345;-60
2024/01/03 13:54:17;;;;;;;;;;;;;;;;;;5125436;28;20405;-60
2024/01/03 13:56:48;;;;;;;;;;;;;;;;;;5121631;28;19918;-60
2024/01/03 13:59:19;;;;;;;;;;;;;;;;;;5141510;28;20057;-60
2024/01/03 14:01:51;;;;;;;;;;;;;;;;;;5125727;28;20472;-60
2024/01/03 14:04:22;;;;;;;;;;;;;;;;;;5141312;28;19925;-60
2024/01/03 14:06:53;;;;;;;;;;;;;;;;;;5121740;28;19933;-59
2024/01/03 14:09:24;;;;;;;;;;;;;;;;;;5145074;28;20330;-59
2024/01/03 14:11:55;;;;;;;;;;;;;;;;;;5129304;28;19918;-59
2024/01/03 14:14:26;;;;;;;;;;;;;;;;;;5145541;28;19961;-60
2024/01/03 14:17:00;;;;;;;;;;;;;;;;;;5145435;28;20364;-60
2024/01/03 14:19:31;;;;;;;;;;;;;;;;;;5145379;28;19925;-60
2024/01/03 14:22:03;;;;;;;;;;;;;;;;;;5129091;28;20279;-60
2024/01/03 14:24:34;;;;;;;;;;;;;;;;;;5141373;28;19922;-59
2024/01/03 14:27:05;;;;;;;;;;;;;;;;;;5161160;28;19926;-60
2024/01/03 14:29:36;;;;;;;;;;;;;;;;;;5126112;28;20093;-60
2024/01/03 14:32:07;;;;;;;;;;;;;;;;;;5144907;28;19997;-60
2024/01/03 14:34:38;;;;;;;;;;;;;;;;;;5145055;28;19928;-60
2024/01/03 14:37:09;;;;;;;;;;;;;;;;;;5144724;28;19918;-59
2024/01/03 14:39:40;;;;;;;;;;;;;;;;;;5144794;28;20384;-60
2024/01/03 14:42:18;;;;;;;;;;;;;;;;;;5128538;28;19918;-60
2024/01/03 14:44:49;;;;;;;;;;;;;;;;;;5128334;28;20000;-59
2024/01/03 14:47:20;;;;;;;;;;;;;;;;;;5124729;28;20337;-61
2024/01/03 14:49:51;;;;;;;;;;;;;;;;;;5144358;28;19926;-61
2024/01/03 14:52:22;;;;;;;;;;;;;;;;;;5128465;28;19926;-60
2024/01/03 14:54:53;;;;;;;;;;;;;;;;;;5144564;28;19922;-60
2024/01/03 14:57:24;;;;;;;;;;;;;;;;;;5126555;28;19972;-60
2024/01/03 14:59:55;;;;;;;;;;;;;;;;;;5144737;28;19918;-61
2024/01/03 15:02:26;;;;;;;;;;;;;;;;;;5127938;28;20024;-61
2024/01/03 15:04:57;;;;;;;;;;;;;;;;;;5124795;28;19926;-60
2024/01/03 15:07:29;;;;;;;;;;;;;;;;;;5141929;28;19969;-59
2024/01/03 15:10:00;;;;;;;;;;;;;;;;;;5135126;28;20347;-60
2024/01/03 15:12:31;;;;;;;;;;;;;;;;;;5145745;28;19957;-60
2024/01/03 15:15:02;;;;;;;;;;;;;;;;;;5124966;28;19918;-60
2024/01/03 15:17:33;;;;;;;;;;;;;;;;;;5128543;28;20440;-60
2024/01/03 15:20:05;;;;;;;;;;;;;;;;;;5143548;28;19918;-60
2024/01/03 15:22:36;;;;;;;;;;;;;;;;;;5143953;28;19926;-60
2024/01/03 15:25:07;;;;;;;;;;;;;;;;;;5127147;28;19918;-60
2024/01/03 15:27:38;;;;;;;;;;;;;;;;;;5143958;28;20368;-60
2024/01/03 15:30:10;;;;;;;;;;;;;;;;;;5143655;28;19922;-60
2024/01/03 15:32:41;;;;;;;;;;;;;;;;;;5143853;28;19968;-60
2024/01/03 15:35:12;;;;;;;;;;;;;;;;;;5127490;28;19917;-60
2024/01/03 15:37:43;;;;;;;;;;;;;;;;;;5143833;28;19972;-60
2024/01/03 15:40:14;;;;;;;;;;;;;;;;;;5143481;28;19921;-60
2024/01/03 15:42:45;;;;;;;;;;;;;;;;;;5125471;28;19926;-60
2024/01/03 15:45:16;;;;;;;;;;;;;;;;;;5143497;28;19976;-60
2024/01/03 15:47:47;;;;;;;;;;;;;;;;;;5143190;28;19976;-60
2024/01/03 15:50:18;;;;;;;;;;;;;;;;;;5126750;28;19973;-59
2024/01/03 15:52:50;;;;;;;;;;;;;;;;;;5142670;28;19996;-59
2024/01/03 15:55:21;;;;;;;;;;;;;;;;;;5145395;28;19963;-57
2024/01/03 15:57:53;;;;;;;;;;;;;;;;;;5143612;28;19961;-57
2024/01/03 16:00:24;;;;;;;;;;;;;;;;;;5139853;28;19926;-57
2024/01/03 16:02:55;;;;;;;;;;;;;;;;;;5142322;28;19929;-59
2024/01/03 16:05:26;;;;;;;;;;;;;;;;;;5142504;28;19918;-56
2024/01/03 16:07:57;;;;;;;;;;;;;;;;;;5127999;28;19922;-57
2024/01/03 16:10:29;;;;;;;;;;;;;;;;;;5125957;28;19977;-58
2024/01/03 16:13:00;;;;;;;;;;;;;;;;;;5141157;28;20311;-57
2024/01/03 16:15:31;;;;;;;;;;;;;;;;;;5146168;28;19918;-58
2024/01/03 16:18:02;;;;;;;;;;;;;;;;;;5125752;28;20301;-61
2024/01/03 16:20:34;;;;;;;;;;;;;;;;;;5124147;28;20200;-62
2024/01/03 16:23:05;;;;;;;;;;;;;;;;;;5128448;28;19926;-63
2024/01/03 16:25:36;;;;;;;;;;;;;;;;;;5141879;28;19924;-63
2024/01/03 16:28:07;;;;;;;;;;;;;;;;;;5141762;28;20373;-63
2024/01/03 16:30:38;;;;;;;;;;;;;;;;;;5141333;28;19944;-63
2024/01/03 16:33:09;;;;;;;;;;;;;;;;;;5142187;28;19926;-63
2024/01/03 16:35:42;;;;;;;;;;;;;;;;;;5126528;28;19986;-63
2024/01/03 16:38:13;;;;;;;;;;;;;;;;;;5141555;28;19918;-63
2024/01/03 16:40:44;;;;;;;;;;;;;;;;;;5142653;28;19926;-62
2024/01/03 16:43:15;;;;;;;;;;;;;;;;;;5142195;28;19940;-63
2024/01/03 16:45:46;;;;;;;;;;;;;;;;;;5142542;28;19995;-61
2024/01/03 16:48:17;;;;;;;;;;;;;;;;;;5141724;28;19973;-64
2024/01/03 16:50:48;;;;;;;;;;;;;;;;;;5137024;28;19922;-63
2024/01/03 16:53:19;;;;;;;;;;;;;;;;;;5142265;28;20380;-63
2024/01/03 16:55:50;;;;;;;;;;;;;;;;;;5125046;28;19953;-63
2024/01/03 16:58:21;;;;;;;;;;;;;;;;;;5141904;28;19965;-64
2024/01/03 17:00:52;;;;;;;;;;;;;;;;;;5141694;28;20443;-63
2024/01/03 17:03:23;;;;;;;;;;;;;;;;;;5125183;28;20008;-62
2024/01/03 17:05:54;;;;;;;;;;;;;;;;;;5138266;28;20009;-60
2024/01/03 17:08:26;;;;;;;;;;;;;;;;;;5141697;28;20020;-62
2024/01/03 17:10:57;;;;;;;;;;;;;;;;;;5140927;28;19918;-65